Time;durP1;ratioP1;P1;durP2;ratioP2;P2;SDS_P1;SDS_P2;PMS_P1;PMS_P2;Temp;Humidity;BMP_temperature;BMP_pressure;BME280_temperature;BME280_humidity;BME280_pressure;Samples;Min_cycle;Max_cycle;Signal;HPM_P1;HPM_P2
2022/05/20 00:00:35;;;;;;;9.20;6.43;;;;;;;-144.47;100.00;61586.06;5094033;28;20036;-87
2022/05/20 00:03:01;;;;;;;8.88;5.82;;;;;;;22.23;100.00;61586.06;5093297;28;20576;-87
2022/05/20 00:05:27;;;;;;;7.00;5.10;;;;;;;-144.47;100.00;61586.06;5093421;28;20094;-86
2022/05/20 00:07:54;;;;;;;6.78;5.10;;;;;;;104.25;100.00;61586.06;5093006;28;20032;-87
2022/05/20 00:10:21;;;;;;;12.05;5.38;;;;;;;-144.47;100.00;61586.06;5093006;28;20024;-86
2022/05/20 00:12:47;;;;;;;8.35;5.03;;;;;;;-144.47;100.00;61586.06;5093794;28;20055;-87
2022/05/20 00:15:16;;;;;;;6.75;5.20;;;;;;;-144.47;100.00;61586.06;5094291;28;20493;-86
2022/05/20 00:17:43;;;;;;;8.45;5.63;;;;;;;-144.47;100.00;61586.06;5094230;28;20040;-87
2022/05/20 00:20:10;;;;;;;6.63;4.50;;;;;;;-144.47;100.00;61586.06;5093913;28;20424;-87
2022/05/20 00:22:36;;;;;;;5.05;4.50;;;;;;;187.31;100.00;61586.06;5094094;28;20395;-86
2022/05/20 00:27:48;;;;;;;6.95;4.93;;;;;;;-144.47;100.00;61586.06;5092514;28;20521;-87
2022/05/20 00:30:13;;;;;;;6.80;5.50;;;;;;;-144.47;100.00;61586.06;5092954;28;20028;-86
2022/05/20 00:32:40;;;;;;;8.05;5.15;;;;;;;-144.47;100.00;61586.06;5094090;28;20040;-87
2022/05/20 00:35:06;;;;;;;10.60;5.55;;;;;;;-144.47;100.00;61586.06;5093463;28;20036;-87
2022/05/20 00:37:32;;;;;;;8.38;5.25;;;;;;;-144.47;100.00;61586.06;5093335;28;20081;-87
2022/05/20 00:39:58;;;;;;;8.57;4.97;;;;;;;-144.47;100.00;61586.06;5093042;28;20035;-87
2022/05/20 00:42:23;;;;;;;9.02;5.68;;;;;;;-144.47;100.00;61586.06;5093148;28;20038;-86
2022/05/20 00:44:49;;;;;;;6.45;5.78;;;;;;;-144.47;100.00;61586.06;5093150;28;20062;-86
2022/05/20 00:47:14;;;;;;;10.52;5.93;;;;;;;-144.47;100.00;61586.06;5093757;28;20472;-87
2022/05/20 00:49:45;;;;;;;6.97;6.25;;;;;;;-144.47;100.00;61586.06;5093563;28;20078;-89
2022/05/20 00:52:14;;;;;;;7.28;5.90;;;;;;;21.42;100.00;61586.06;5092380;28;20063;-87
2022/05/20 00:54:45;;;;;;;9.00;6.50;;;;;;;-144.47;100.00;61586.06;5093338;28;20051;-85
2022/05/20 00:57:33;;;;;;;6.40;5.40;;;;;;;-144.47;100.00;61586.06;5092331;28;20036;-87
2022/05/20 01:00:11;;;;;;;7.22;6.10;;;;;;;20.89;100.00;61586.06;5088515;28;20051;-87
2022/05/20 01:02:37;;;;;;;8.85;6.40;;;;;;;20.94;100.00;61586.06;5091642;28;20123;-88
2022/05/20 01:05:09;;;;;;;8.45;6.25;;;;;;;20.81;100.00;61586.06;5091197;28;20686;-87
2022/05/20 01:07:39;;;;;;;7.55;6.22;;;;;;;20.83;100.00;61586.06;5094479;28;20028;-88
2022/05/20 01:10:06;;;;;;;10.85;6.10;;;;;;;-144.47;100.00;61586.06;5093767;28;20036;-87
2022/05/20 01:12:32;;;;;;;9.57;6.00;;;;;;;20.80;100.00;61586.06;5093764;28;20507;-87
2022/05/20 01:14:58;;;;;;;10.88;6.22;;;;;;;-144.47;100.00;61586.06;5099060;28;20028;-87
2022/05/20 01:17:23;;;;;;;9.07;5.47;;;;;;;-144.47;100.00;61586.06;5106248;28;20032;-85
2022/05/20 01:19:53;;;;;;;6.97;6.38;;;;;;;-144.47;100.00;61586.06;5094921;28;20059;-86
2022/05/20 01:22:48;;;;;;;7.30;6.25;;;;;;;-144.47;100.00;61586.06;5085081;28;20477;-85
2022/05/20 01:25:14;;;;;;;6.95;6.35;;;;;;;-144.47;100.00;61586.06;5083279;28;20039;-86
2022/05/20 01:27:42;;;;;;;9.63;6.13;;;;;;;-144.47;100.00;61586.06;5092482;28;20028;-88
2022/05/20 01:30:14;;;;;;;6.70;5.85;;;;;;;-144.47;100.00;61586.06;5091853;28;20028;-88
2022/05/20 01:32:40;;;;;;;7.93;5.47;;;;;;;-144.47;100.00;61586.06;5095001;28;20046;-87
2022/05/20 01:35:10;;;;;;;9.27;6.75;;;;;;;-144.47;100.00;61586.06;5093698;28;20036;-87
2022/05/20 01:37:35;;;;;;;10.55;6.65;;;;;;;-144.47;100.00;61586.06;5094656;28;20081;-87
2022/05/20 01:40:01;;;;;;;7.45;6.15;;;;;;;-144.47;100.00;61586.06;5094175;28;20036;-87
2022/05/20 01:42:45;;;;;;;7.13;6.40;;;;;;;-144.47;100.00;61586.06;5093759;28;20036;-86
2022/05/20 01:45:25;;;;;;;8.75;6.00;;;;;;;-144.47;100.00;61586.06;5093087;28;20040;-87
2022/05/20 01:48:16;;;;;;;10.02;6.22;;;;;;;-144.47;100.00;61586.06;5089595;28;20077;-87
2022/05/20 01:50:48;;;;;;;6.40;5.47;;;;;;;-144.47;100.00;61586.06;5092262;28;20054;-87
2022/05/20 01:53:20;;;;;;;9.85;6.20;;;;;;;-144.47;100.00;61586.06;5093519;28;20062;-86
2022/05/20 01:55:55;;;;;;;8.32;5.93;;;;;;;-144.47;100.00;61586.06;5093746;28;20028;-87
2022/05/20 01:58:39;;;;;;;6.65;5.68;;;;;;;-144.47;100.00;61586.06;5090292;28;20020;-87
2022/05/20 02:01:14;;;;;;;6.43;5.80;;;;;;;-144.47;100.00;61586.06;5090122;28;20051;-87
2022/05/20 02:03:56;;;;;;;6.47;5.63;;;;;;;-144.47;100.00;61586.06;5093957;28;20318;-87
2022/05/20 02:06:27;;;;;;;7.22;6.10;;;;;;;-144.47;100.00;61586.06;5089538;28;20036;-88
2022/05/20 02:09:05;;;;;;;9.18;5.18;;;;;;;-144.47;100.00;61586.06;5088695;28;20068;-87
2022/05/20 02:11:49;;;;;;;5.88;5.28;;;;;;;-144.47;100.00;61586.06;5093039;28;20124;-85
2022/05/20 02:14:27;;;;;;;8.00;5.85;;;;;;;-144.47;100.00;61586.06;5092767;28;20132;-88
2022/05/20 02:17:18;;;;;;;7.13;5.72;;;;;;;-144.47;100.00;61586.06;5089407;28;20028;-87
2022/05/20 02:19:59;;;;;;;7.15;5.72;;;;;;;-144.47;100.00;61586.06;5093033;28;20040;-88
2022/05/20 02:22:29;;;;;;;6.90;6.18;;;;;;;-144.47;100.00;61586.06;5090046;28;20036;-87
2022/05/20 02:24:56;;;;;;;;;;;;;;;-144.47;100.00;61586.06;5094483;28;20028;-87
2022/05/20 02:27:26;;;;;;;7.22;5.63;;;;;;;-144.47;100.00;61586.06;5096408;28;20387;-87
2022/05/20 02:30:02;;;;;;;8.52;6.53;;;;;;;-144.47;100.00;61586.06;5105496;28;20032;-88
2022/05/20 02:32:35;;;;;;;7.85;6.22;;;;;;;-144.47;100.00;61586.06;5101031;28;20028;-87
2022/05/20 02:35:01;;;;;;;11.70;6.45;;;;;;;187.31;100.00;61586.06;5101213;28;20051;-88
2022/05/20 02:37:32;;;;;;;10.55;6.35;;;;;;;19.97;100.00;61586.06;5105473;28;20024;-88
2022/05/20 02:39:59;;;;;;;11.18;6.68;;;;;;;19.93;100.00;61586.06;5115833;28;20028;-87
2022/05/20 02:42:27;;;;;;;11.52;6.15;;;;;;;19.97;100.00;61586.06;5114971;28;20068;-88
2022/05/20 02:44:52;;;;;;;9.23;6.50;;;;;;;19.91;100.00;61586.06;5110456;28;20036;-87
2022/05/20 02:47:19;;;;;;;6.72;6.03;;;;;;;-144.47;100.00;61586.06;5109573;28;20024;-86
2022/05/20 02:49:45;;;;;;;9.30;6.30;;;;;;;187.31;100.00;61586.06;5112597;28;20032;-86
2022/05/20 02:52:11;;;;;;;7.18;6.10;;;;;;;-144.47;100.00;61586.06;5108708;28;20597;-86
2022/05/20 02:54:37;;;;;;;6.78;5.95;;;;;;;-144.47;100.00;61586.06;5101405;28;20032;-86
2022/05/20 02:57:03;;;;;;;10.30;7.07;;;;;;;187.31;100.00;61586.06;5096169;28;20032;-87
2022/05/20 03:04:57;;;;;;;7.13;6.53;;;;;;;19.80;100.00;61586.06;5092024;28;20514;-89
2022/05/20 03:07:23;;;;;;;6.60;6.03;;;;;;;187.31;100.00;61586.06;5096779;28;20016;-88
2022/05/20 03:09:51;;;;;;;6.90;6.20;;;;;;;19.61;100.00;61586.06;5096239;28;20036;-85
2022/05/20 03:12:17;;;;;;;11.15;6.30;;;;;;;19.52;100.00;61586.06;5096552;28;20055;-87
2022/05/20 03:14:42;;;;;;;9.80;6.15;;;;;;;19.64;100.00;61586.06;5093854;28;20036;-88
2022/05/20 03:17:08;;;;;;;13.05;6.30;;;;;;;19.50;100.00;61586.06;5095879;28;20032;-88
2022/05/20 03:19:33;;;;;;;7.63;6.82;;;;;;;19.97;100.00;61586.06;5096075;28;20096;-88
2022/05/20 03:22:04;;;;;;;11.15;6.22;;;;;;;19.64;100.00;61586.06;5096035;28;20043;-87
2022/05/20 03:24:30;;;;;;;6.70;6.03;;;;;;;19.42;100.00;61586.06;5096173;28;20133;-88
2022/05/20 03:26:56;;;;;;;8.10;6.30;;;;;;;19.44;100.00;61586.06;5094103;28;20465;-86
2022/05/20 03:29:22;;;;;;;11.02;6.32;;;;;;;19.44;100.00;61586.06;5095810;28;20472;-87
2022/05/20 03:31:48;;;;;;;7.20;6.60;;;;;;;19.62;100.00;61586.06;5092342;28;20028;-87
2022/05/20 03:34:35;;;;;;;6.88;6.22;;;;;;;186.01;100.00;61586.06;5108581;28;20036;-86
2022/05/20 03:37:01;;;;;;;9.05;6.60;;;;;;;19.97;100.00;61586.06;5103530;28;20032;-86
2022/05/20 03:39:26;;;;;;;9.65;6.00;;;;;;;19.97;100.00;61586.06;5117006;28;20040;-87
2022/05/20 03:41:52;;;;;;;9.27;6.82;;;;;;;-144.47;100.00;61586.06;5113702;28;20036;-87
2022/05/20 03:44:19;;;;;;;6.85;6.25;;;;;;;187.31;100.00;61586.06;5091782;28;20089;-88
2022/05/20 03:46:51;;;;;;;9.52;6.45;;;;;;;19.97;100.00;61586.06;5094564;28;20020;-88
2022/05/20 03:49:18;;;;;;;12.60;6.70;;;;;;;187.31;100.00;61586.06;5093714;28;20040;-88
2022/05/20 03:51:46;;;;;;;9.07;6.68;;;;;;;187.31;100.00;61586.06;5094773;28;20016;-88
2022/05/20 03:54:13;;;;;;;7.38;6.75;;;;;;;187.31;100.00;61586.06;5095555;28;20476;-88
2022/05/20 03:56:40;;;;;;;7.10;6.50;;;;;;;21.26;100.00;61586.06;5093696;28;20051;-88
2022/05/20 03:59:08;;;;;;;7.40;6.57;;;;;;;-144.47;100.00;61586.06;5094582;28;20031;-87
2022/05/20 04:04:20;;;;;;;7.43;6.70;;;;;;;-144.47;100.00;61586.06;5088069;28;20031;-87
2022/05/20 04:06:45;;;;;;;9.27;6.90;;;;;;;-144.47;100.00;61586.06;5092067;28;20016;-88
2022/05/20 04:09:11;;;;;;;7.95;6.47;;;;;;;-144.47;100.00;61586.06;5093277;28;20400;-88
2022/05/20 04:11:37;;;;;;;7.47;6.53;;;;;;;18.68;100.00;61586.06;5093551;28;20036;-88
2022/05/20 04:14:03;;;;;;;8.93;6.45;;;;;;;-144.47;100.00;61586.06;5093570;28;20144;-87
2022/05/20 04:16:29;;;;;;;7.68;6.75;;;;;;;-144.47;100.00;61586.06;5093571;28;20020;-88
2022/05/20 04:18:54;;;;;;;7.00;6.38;;;;;;;-144.47;100.00;61586.06;5091591;28;20201;-86
2022/05/20 04:21:20;;;;;;;6.97;6.32;;;;;;;-144.47;100.00;61586.06;5094559;28;20110;-88
2022/05/20 04:23:46;;;;;;;9.65;6.43;;;;;;;-144.47;100.00;61586.06;5096140;28;20027;-87
2022/05/20 04:26:11;;;;;;;6.32;5.82;;;;;;;-144.47;100.00;61586.06;5094735;28;20097;-88
2022/05/20 04:28:37;;;;;;;9.93;6.47;;;;;;;-144.47;100.00;61586.06;5095298;28;20028;-87
2022/05/20 04:31:05;;;;;;;7.22;6.57;;;;;;;-144.47;100.00;61586.06;5093274;28;20043;-86
2022/05/20 04:33:31;;;;;;;7.60;6.90;;;;;;;-144.47;100.00;61586.06;5093765;28;20451;-87
2022/05/20 04:35:56;;;;;;;7.00;6.10;;;;;;;-144.47;100.00;61586.06;5093026;28;20052;-87
2022/05/20 04:38:22;;;;;;;6.80;6.18;;;;;;;-144.47;100.00;61586.06;5093508;28;20040;-86
2022/05/20 04:46:56;;;;;;;6.50;5.80;;;;;;;-144.47;100.00;61586.06;5091714;28;20039;-87
2022/05/20 04:49:05;;;;;;;7.43;6.75;;;;;;;-144.47;100.00;61586.06;5089607;28;20042;-87
2022/05/20 04:51:35;;;;;;;10.43;7.55;;;;;;;19.97;100.00;61586.06;5091974;28;20544;-83
2022/05/20 04:56:45;;;;;;;8.80;6.72;;;;;;;-144.47;100.00;61586.06;5091812;28;20032;-82
2022/05/20 04:59:11;;;;;;;9.10;6.10;;;;;;;-144.47;100.00;61586.06;5092586;28;20581;-83
2022/05/20 05:01:37;;;;;;;9.95;6.15;;;;;;;-144.47;100.00;61586.06;5092211;28;20033;-74
2022/05/20 05:04:02;;;;;;;6.93;6.05;;;;;;;-144.47;100.00;61586.06;5092104;28;20036;-73
2022/05/20 05:06:28;;;;;;;9.23;7.18;;;;;;;-144.47;100.00;61586.06;5091649;28;20055;-72
2022/05/20 05:08:53;;;;;;;8.50;6.82;;;;;;;-144.47;100.00;61586.06;5092045;28;20164;-70
2022/05/20 05:11:20;;;;;;;10.68;6.50;;;;;;;-144.47;100.00;61586.06;5092088;28;20024;-71
2022/05/20 05:13:45;;;;;;;10.30;6.55;;;;;;;-144.47;100.00;61586.06;5091887;28;20452;-71
2022/05/20 05:16:11;;;;;;;10.35;6.80;;;;;;;-144.47;100.00;61586.06;5091813;28;20072;-71
2022/05/20 05:18:37;;;;;;;7.03;6.40;;;;;;;19.64;100.00;61586.06;5092011;28;20430;-69
2022/05/20 05:21:03;;;;;;;9.52;7.05;;;;;;;-144.47;100.00;61586.06;5087385;28;20039;-70
2022/05/20 05:23:29;;;;;;;8.15;6.55;;;;;;;-144.47;100.00;61586.06;5089649;28;20070;-70
2022/05/20 05:25:55;;;;;;;8.13;7.15;;;;;;;-144.47;100.00;61586.06;5089365;28;20441;-70
2022/05/20 05:28:22;;;;;;;10.77;8.05;;;;;;;-144.47;100.00;61586.06;5091811;28;20164;-70
2022/05/20 05:30:49;;;;;;;8.63;7.70;;;;;;;-144.47;100.00;61586.06;5091795;28;20074;-73
2022/05/20 05:33:15;;;;;;;8.27;7.47;;;;;;;19.97;100.00;61586.06;5090835;28;20542;-70
2022/05/20 05:35:41;;;;;;;11.48;7.57;;;;;;;19.63;100.00;61586.06;5090559;28;20059;-69
2022/05/20 05:38:06;;;;;;;8.95;6.90;;;;;;;19.97;100.00;61586.06;5091515;28;20029;-71
2022/05/20 05:40:35;;;;;;;9.07;8.27;;;;;;;19.68;100.00;61586.06;5089944;28;20062;-68
2022/05/20 05:43:02;;;;;;;7.57;6.97;;;;;;;19.97;100.00;61586.06;5090744;28;20085;-71
2022/05/20 05:45:29;;;;;;;9.10;7.80;;;;;;;19.80;100.00;61586.06;5090105;28;20047;-70
2022/05/20 05:48:07;;;;;;;16.33;8.18;;;;;;;19.97;100.00;61586.06;5091381;28;20067;-70
2022/05/20 05:50:35;;;;;;;10.93;8.43;;;;;;;-144.47;100.00;61586.06;5089923;28;20060;-71
2022/05/20 05:53:12;;;;;;;10.95;9.10;;;;;;;19.97;100.00;61586.06;5091544;28;20031;-72
2022/05/20 05:55:39;;;;;;;10.55;8.13;;;;;;;19.59;100.00;61586.06;5086185;28;20040;-74
2022/05/20 05:58:05;;;;;;;9.40;8.70;;;;;;;19.97;100.00;61586.06;5088526;28;20025;-74
2022/05/20 06:00:31;;;;;;;8.88;8.18;;;;;;;19.97;100.00;61586.06;5089412;28;20046;-77
2022/05/20 06:02:56;;;;;;;12.80;9.15;;;;;;;187.31;100.00;61586.06;5089289;28;20480;-76
2022/05/20 06:05:22;;;;;;;10.65;8.73;;;;;;;21.26;100.00;61586.06;5091534;28;20028;-75
2022/05/20 06:07:48;;;;;;;11.05;10.00;;;;;;;20.21;100.00;61586.06;5089457;28;20024;-75
2022/05/20 06:10:14;;;;;;;9.75;8.90;;;;;;;-144.47;100.00;61586.06;5091181;28;20059;-75
2022/05/20 06:12:40;;;;;;;10.80;9.40;;;;;;;-144.47;100.00;61586.06;5089697;28;20019;-76
2022/05/20 06:15:15;;;;;;;9.43;8.63;;;;;;;-144.47;100.00;61586.06;5090425;28;20498;-74
2022/05/20 06:17:41;;;;;;;9.75;8.85;;;;;;;21.26;100.00;61586.06;5090990;28;20168;-75
2022/05/20 06:20:08;;;;;;;12.57;9.63;;;;;;;-144.47;100.00;61586.06;5090865;28;20024;-75
2022/05/20 06:22:33;;;;;;;12.55;9.05;;;;;;;-144.47;100.00;61586.06;5090696;28;20122;-76
2022/05/20 06:24:59;;;;;;;18.60;10.75;;;;;;;20.69;100.00;61586.06;5090568;28;20028;-76
2022/05/20 06:27:24;;;;;;;11.15;9.95;;;;;;;-144.47;100.00;61586.06;5091877;28;20732;-76
2022/05/20 06:29:51;;;;;;;13.35;11.15;;;;;;;21.26;100.00;61586.06;5091176;28;20031;-75
2022/05/20 06:32:17;;;;;;;12.57;11.10;;;;;;;21.20;100.00;61586.06;5092895;28;20032;-74
2022/05/20 06:40:15;;;;;;;13.10;11.77;;;;;;;21.42;100.00;61586.06;5090497;28;20032;-76
2022/05/20 06:42:42;;;;;;;12.88;11.40;;;;;;;-144.47;100.00;61586.06;5089876;28;20097;-77
2022/05/20 06:45:09;;;;;;;17.45;12.48;;;;;;;-144.47;100.00;61586.06;5090056;28;20112;-75
2022/05/20 06:47:34;;;;;;;13.52;11.95;;;;;;;-144.47;100.00;61586.06;5090153;28;20380;-75
2022/05/20 06:50:00;;;;;;;13.40;12.00;;;;;;;-144.47;100.00;61586.06;5089965;28;20036;-76
2022/05/20 06:52:25;;;;;;;15.68;12.90;;;;;;;-144.47;100.00;61586.06;5090416;28;20152;-76
2022/05/20 06:54:51;;;;;;;15.40;11.90;;;;;;;-144.47;100.00;61586.06;5090117;28;20028;-74
2022/05/20 06:57:18;;;;;;;14.40;12.77;;;;;;;21.83;100.00;61586.06;5093509;28;20032;-76
2022/05/20 06:59:44;;;;;;;15.30;13.27;;;;;;;-144.47;100.00;61586.06;5098233;28;20039;-75
2022/05/20 07:02:09;;;;;;;14.45;12.90;;;;;;;-144.47;100.00;61586.06;5099216;28;20028;-75
2022/05/20 07:04:35;;;;;;;14.45;12.93;;;;;;;-144.47;100.00;61586.06;5096495;28;20177;-75
2022/05/20 07:07:03;;;;;;;18.00;12.43;;;;;;;-144.47;100.00;61586.06;5094683;28;20043;-74
2022/05/20 07:09:30;;;;;;;16.23;13.73;;;;;;;-144.47;100.00;61586.06;5096509;28;20112;-77
2022/05/20 07:11:55;;;;;;;14.05;12.75;;;;;;;-144.47;100.00;61586.06;5093918;28;20046;-75
2022/05/20 07:14:22;;;;;;;14.98;12.13;;;;;;;-144.47;100.00;61586.06;5086069;28;21519;-75
2022/05/20 07:16:48;;;;;;;15.95;11.68;;;;;;;-144.47;100.00;61586.06;5089820;28;20468;-75
2022/05/20 07:19:15;;;;;;;14.95;12.43;;;;;;;-144.47;100.00;61586.06;5095188;28;20059;-74
2022/05/20 07:21:40;;;;;;;14.82;11.82;;;;;;;-144.47;100.00;61586.06;5094446;28;20428;-74
2022/05/20 07:24:07;;;;;;;14.27;12.82;;;;;;;-144.47;100.00;61586.06;5095435;28;20051;-69
2022/05/20 07:26:34;;;;;;;13.43;11.85;;;;;;;-144.47;100.00;61586.06;5096730;28;20055;-71
2022/05/20 07:29:00;;;;;;;13.02;11.82;;;;;;;-144.47;100.00;61586.06;5098318;28;20446;-68
2022/05/20 07:31:25;;;;;;;13.60;12.40;;;;;;;-144.47;100.00;61586.06;5097815;28;20118;-70
2022/05/20 07:33:52;;;;;;;12.32;11.00;;;;;;;-144.47;100.00;61586.06;5094948;28;20119;-68
2022/05/20 07:36:17;;;;;;;15.02;11.90;;;;;;;-144.47;100.00;61586.06;5095506;28;20063;-70
2022/05/20 07:38:43;;;;;;;13.52;12.05;;;;;;;187.31;100.00;61586.06;5096957;28;20269;-68
2022/05/20 07:41:09;;;;;;;13.70;10.80;;;;;;;187.31;100.00;61586.06;5097309;28;20536;-69
2022/05/20 07:43:35;;;;;;;16.38;10.77;;;;;;;-144.47;100.00;61586.06;5100957;28;20040;-70
2022/05/20 07:46:01;;;;;;;17.55;11.43;;;;;;;-144.47;100.00;61586.06;5096167;28;20377;-69
2022/05/20 07:48:28;;;;;;;15.27;10.52;;;;;;;-144.47;100.00;61586.06;5098150;28;20517;-70
2022/05/20 07:51:00;;;;;;;12.63;10.88;;;;;;;-144.47;100.00;61586.06;5099374;28;20097;-71
2022/05/20 07:53:35;;;;;;;12.25;9.60;;;;;;;-144.47;100.00;61586.06;5100464;28;20036;-69
2022/05/20 07:56:26;;;;;;;10.10;9.13;;;;;;;-144.47;100.00;61586.06;5097291;28;20492;-70
2022/05/20 07:59:14;;;;;;;10.38;9.43;;;;;;;104.25;100.00;61586.06;5093648;28;20051;-69
2022/05/20 08:01:45;;;;;;;9.80;8.77;;;;;;;187.31;100.00;61586.06;5098298;28;20062;-72
2022/05/20 08:07:01;;;;;;;9.80;8.80;;;;;;;-144.47;100.00;61586.06;5098886;28;20353;-69
2022/05/20 08:09:27;;;;;;;10.10;9.15;;;;;;;-144.47;100.00;61586.06;5094937;28;20043;-70
2022/05/20 08:11:53;;;;;;;10.95;9.55;;;;;;;-144.47;100.00;61586.06;5099001;28;20036;-70
2022/05/20 08:14:18;;;;;;;11.18;9.95;;;;;;;42.00;100.00;61586.06;5099510;28;20027;-71
2022/05/20 08:16:44;;;;;;;10.32;9.32;;;;;;;42.00;100.00;61586.06;5097375;28;20052;-71
2022/05/20 08:19:09;;;;;;;12.65;7.88;;;;;;;31.63;100.00;61586.06;5096831;28;20036;-69
2022/05/20 08:21:35;;;;;;;10.20;8.50;;;;;;;42.00;100.00;61586.06;5096063;28;20050;-70
2022/05/20 08:24:00;;;;;;;6.85;6.35;;;;;;;42.00;100.00;61586.06;5098600;28;20047;-69
2022/05/20 08:26:26;;;;;;;8.05;7.18;;;;;;;104.25;100.00;61586.06;5094730;28;20035;-69
2022/05/20 08:28:51;;;;;;;6.78;6.07;;;;;;;42.00;100.00;61586.06;5097950;28;20439;-70
2022/05/20 08:31:17;;;;;;;6.90;6.07;;;;;;;42.00;100.00;61586.06;5099235;28;20036;-68
2022/05/20 08:33:43;;;;;;;6.22;5.63;;;;;;;-144.47;100.00;61586.06;5095328;28;20027;-69
2022/05/20 08:36:08;;;;;;;7.32;6.10;;;;;;;-144.47;100.00;61586.06;5091904;28;20024;-70
2022/05/20 08:38:34;;;;;;;7.35;5.13;;;;;;;42.00;100.00;61586.06;5096396;28;20024;-70
2022/05/20 08:41:00;;;;;;;6.28;5.32;;;;;;;62.74;100.00;61586.06;5095785;28;20046;-68
2022/05/20 08:43:30;;;;;;;6.75;4.93;;;;;;;-144.47;100.00;61586.06;5099919;28;20480;-69
2022/05/20 08:45:56;;;;;;;;;;;;;;;-144.47;100.00;61586.06;5093146;28;20819;-75
2022/05/20 08:48:22;;;;;;;7.28;6.10;;;;;;;-144.47;100.00;61586.06;5096475;28;20003;-75
2022/05/20 08:50:51;;;;;;;7.50;6.80;;;;;;;104.25;100.00;61586.06;5093717;28;20024;-76
2022/05/20 08:53:23;;;;;;;7.50;6.78;;;;;;;-144.47;100.00;61586.06;5091562;28;20031;-77
2022/05/20 08:55:48;;;;;;;6.72;5.80;;;;;;;-144.47;100.00;61586.06;5092197;28;20391;-76
2022/05/20 08:58:21;;;;;;;6.93;5.90;;;;;;;187.31;100.00;61586.06;5091809;28;20036;-77
2022/05/20 09:00:47;;;;;;;8.18;7.35;;;;;;;-144.47;100.00;61586.06;5092020;28;20036;-76
2022/05/20 09:03:12;;;;;;;8.50;5.70;;;;;;;-144.47;100.00;61586.06;5091995;28;20024;-76
2022/05/20 09:05:41;;;;;;;8.65;6.57;;;;;;;187.31;100.00;61586.06;5091855;28;20509;-76
2022/05/20 09:08:33;;;;;;;8.18;6.47;;;;;;;-144.47;100.00;61586.06;5089741;28;20087;-76
2022/05/20 09:11:00;;;;;;;12.18;7.13;;;;;;;-144.47;100.00;61586.06;5088712;28;20098;-75
2022/05/20 09:16:27;;;;;;;8.48;7.72;;;;;;;-144.47;100.00;61586.06;5088175;28;20037;-76
2022/05/20 09:19:11;;;;;;;7.57;6.88;;;;;;;-144.47;100.00;61586.06;5087949;28;20035;-74
2022/05/20 09:21:58;;;;;;;10.23;6.82;;;;;;;-144.47;100.00;61586.06;5089938;28;20032;-75
2022/05/20 09:24:24;;;;;;;7.78;6.93;;;;;;;31.63;100.00;61586.06;5087312;28;20028;-76
2022/05/20 09:27:03;;;;;;;10.63;6.38;;;;;;;-144.47;100.00;61586.06;5091446;28;20476;-76
2022/05/20 09:29:34;;;;;;;8.00;7.30;;;;;;;25.07;100.00;61586.06;5088607;28;20164;-75
2022/05/20 09:32:03;;;;;;;9.85;7.10;;;;;;;-144.47;100.00;61586.06;5091516;28;20024;-76
2022/05/20 09:34:41;;;;;;;10.75;8.63;;;;;;;-144.47;100.00;61586.06;5092204;28;20043;-76
2022/05/20 09:37:13;;;;;;;8.05;7.30;;;;;;;-144.47;100.00;61586.06;5090932;28;20028;-76
2022/05/20 09:39:44;;;;;;;9.13;6.85;;;;;;;-144.47;100.00;61586.06;5090932;28;20068;-77
2022/05/20 09:42:55;;;;;;;13.57;6.40;;;;;;;-144.47;100.00;61586.06;5089764;28;20507;-76
2022/05/20 09:45:49;;;;;;;8.75;6.78;;;;;;;-144.47;100.00;61586.06;5089191;28;20462;-77
2022/05/20 09:48:51;;;;;;;9.05;7.13;;;;;;;-144.47;100.00;61586.06;5091225;28;20059;-76
2022/05/20 09:51:28;;;;;;;9.90;7.25;;;;;;;-144.47;100.00;61586.06;5082474;28;20073;-77
2022/05/20 09:54:11;;;;;;;8.65;6.35;;;;;;;-144.47;100.00;61586.06;5087573;28;20445;-77
2022/05/20 09:57:06;;;;;;;8.77;6.57;;;;;;;-144.47;100.00;61586.06;5089451;28;20438;-77
2022/05/20 09:59:54;;;;;;;7.50;6.70;;;;;;;-144.47;100.00;61586.06;5086726;28;20067;-76
2022/05/20 10:02:30;;;;;;;9.25;6.93;;;;;;;-144.47;100.00;61586.06;5086454;28;20028;-77
2022/05/20 10:05:18;;;;;;;7.15;6.50;;;;;;;-144.47;100.00;61586.06;5085398;28;20123;-77
2022/05/20 10:07:53;;;;;;;7.63;5.53;;;;;;;-144.47;100.00;61586.06;5090111;28;20059;-77
2022/05/20 10:10:29;;;;;;;5.72;5.15;;;;;;;-144.47;100.00;61586.06;5089247;28;20028;-77
2022/05/20 10:12:57;;;;;;;9.85;5.13;;;;;;;187.31;100.00;61586.06;5086703;28;20107;-76
2022/05/20 10:15:29;;;;;;;9.43;5.43;;;;;;;-144.47;100.00;61586.06;5090704;28;20043;-76
2022/05/20 10:18:16;;;;;;;9.75;6.30;;;;;;;-144.47;100.00;61586.06;5085685;28;20361;-76
2022/05/20 10:20:55;;;;;;;8.60;5.88;;;;;;;187.31;100.00;61586.06;5090531;28;20066;-76
2022/05/20 10:23:42;;;;;;;9.57;5.22;;;;;;;-144.47;100.00;61586.06;5086737;28;20062;-77
2022/05/20 10:26:31;;;;;;;8.50;6.15;;;;;;;-144.47;100.00;61586.06;5088338;28;20487;-77
2022/05/20 10:34:46;;;;;;;5.65;5.15;;;;;;;104.25;100.00;61586.06;5089909;28;20047;-76
2022/05/20 10:37:14;;;;;;;7.32;5.18;;;;;;;62.74;100.00;61586.06;5090331;28;20024;-77
2022/05/20 10:39:43;;;;;;;6.90;4.25;;;;;;;187.31;100.00;61586.06;5090970;28;20036;-77
2022/05/20 10:42:41;;;;;;;4.60;4.20;;;;;;;187.31;100.00;61586.06;5071554;28;20898;-77
2022/05/20 10:48:37;;;;;;;7.95;5.32;;;;;;;187.31;100.00;61586.06;5088798;28;20067;-75
2022/05/20 10:51:30;;;;;;;5.07;4.07;;;;;;;29.04;100.00;61586.06;5087685;28;20086;-76
2022/05/20 10:54:17;;;;;;;7.47;4.00;;;;;;;29.04;100.00;61586.06;5086858;28;20021;-78
2022/05/20 10:57:06;;;;;;;5.72;4.05;;;;;;;42.00;100.00;61586.06;5089902;28;20051;-76
2022/05/20 10:59:44;;;;;;;5.38;4.10;;;;;;;29.04;100.00;61586.06;5087519;28;20546;-77
2022/05/20 11:02:27;;;;;;;12.32;3.95;;;;;;;29.04;100.00;61586.06;5089711;28;20055;-77
2022/05/20 11:05:17;;;;;;;4.75;3.35;;;;;;;27.74;100.00;61586.06;5086239;28;20097;-77
2022/05/20 11:08:00;;;;;;;6.57;4.22;;;;;;;29.04;100.00;61586.06;5088948;28;20495;-76
2022/05/20 11:10:26;;;;;;;6.80;3.55;;;;;;;42.00;100.00;61586.06;5087077;28;20039;-77
2022/05/20 11:13:12;;;;;;;6.25;3.30;;;;;;;27.01;100.00;61586.06;5089403;28;20432;-77
2022/05/20 11:15:49;;;;;;;7.32;3.58;;;;;;;29.04;100.00;61586.06;5089549;28;20442;-76
2022/05/20 11:18:43;;;;;;;3.58;2.85;;;;;;;42.00;100.00;61586.06;5094010;28;20115;-77
2022/05/20 11:21:30;;;;;;;9.13;3.05;;;;;;;62.74;100.00;61586.06;5084303;28;20040;-76
2022/05/20 11:24:43;;;;;;;4.55;2.75;;;;;;;42.00;100.00;61586.06;5090595;28;20036;-76
2022/05/20 11:27:26;;;;;;;6.18;2.42;;;;;;;29.04;100.00;61586.06;5066123;28;20044;-76
2022/05/20 11:30:10;;;;;;;4.30;2.60;;;;;;;29.04;100.00;61586.06;5089208;28;20036;-76
2022/05/20 11:32:47;;;;;;;2.92;2.22;;;;;;;29.04;100.00;61586.06;5091945;28;20116;-76
2022/05/20 11:35:38;;;;;;;6.68;3.03;;;;;;;42.00;100.00;61586.06;5093723;28;20028;-77
2022/05/20 11:38:22;;;;;;;3.08;2.53;;;;;;;29.04;100.00;61586.06;5091166;28;20040;-75
2022/05/20 11:41:11;;;;;;;3.88;2.40;;;;;;;29.04;100.00;61586.06;5093054;28;20028;-75
2022/05/20 11:43:55;;;;;;;4.32;2.45;;;;;;;-144.47;100.00;61586.06;5091107;28;20036;-74
2022/05/20 11:46:39;;;;;;;2.67;2.05;;;;;;;-144.47;100.00;61586.06;5089499;28;20187;-74
2022/05/20 11:49:13;;;;;;;4.13;2.10;;;;;;;-144.47;100.00;61586.06;5090976;28;20364;-75
2022/05/20 11:52:04;;;;;;;2.00;1.75;;;;;;;-144.47;100.00;61586.06;5093297;28;20043;-75
2022/05/20 11:54:43;;;;;;;3.45;1.83;;;;;;;187.31;100.00;61586.06;5091391;28;20024;-76
2022/05/20 11:57:22;;;;;;;2.35;1.77;;;;;;;-144.47;100.00;61586.06;5095342;28;20042;-76
2022/05/20 11:59:56;;;;;;;3.30;1.80;;;;;;;187.31;100.00;61586.06;5093836;28;20024;-75
2022/05/20 12:02:24;;;;;;;4.30;2.03;;;;;;;187.31;100.00;61586.06;5089514;28;20093;-76
2022/05/20 12:04:50;;;;;;;4.97;1.92;;;;;;;187.31;100.00;61586.06;5090564;28;20031;-76
2022/05/20 12:07:23;;;;;;;2.08;1.88;;;;;;;-144.47;100.00;61586.06;5093823;28;20036;-75
2022/05/20 12:09:52;;;;;;;2.38;2.00;;;;;;;-144.47;100.00;61586.06;5088953;28;20408;-75